createdAt,value
2023-04-06T00:00:42.365Z,79.58
2023-04-06T00:03:25.614Z,79.53
2023-04-06T00:05:54.867Z,79.53
2023-04-06T00:08:24.744Z,79.50
2023-04-06T00:10:52.898Z,79.44
2023-04-06T00:13:21.726Z,79.37
2023-04-06T00:15:50.147Z,79.30
2023-04-06T00:18:18.290Z,79.20
2023-04-06T00:20:46.798Z,79.22
2023-04-06T00:23:15.257Z,79.17
2023-04-06T00:25:44.662Z,79.10
2023-04-06T00:28:12.882Z,79.03
2023-04-06T00:30:42.157Z,79.02
2023-04-06T00:33:10.613Z,79.08
2023-04-06T00:35:39.966Z,79.02
2023-04-06T00:38:08.316Z,79.13
2023-04-06T00:40:36.659Z,79.03
2023-04-06T00:43:05.286Z,79.05
2023-04-06T00:45:34.372Z,79.11
2023-04-06T00:48:03.190Z,79.00
2023-04-06T00:50:31.543Z,79.03
2023-04-06T00:53:00.861Z,79.05
2023-04-06T00:55:32.273Z,79.11
2023-04-06T00:58:01.693Z,79.04
2023-04-06T01:00:31.969Z,78.98
2023-04-06T01:03:15.175Z,78.80
2023-04-06T01:05:45.492Z,78.75
2023-04-06T01:08:21.086Z,78.75
2023-04-06T01:10:50.176Z,78.78
2023-04-06T01:13:25.985Z,78.75
2023-04-06T01:15:56.330Z,78.70
2023-04-06T01:18:32.942Z,78.70
2023-04-06T01:21:21.393Z,78.60
2023-04-06T01:24:02.354Z,78.75
2023-04-06T01:26:35.917Z,78.75
2023-04-06T01:29:08.047Z,78.61
2023-04-06T01:31:36.497Z,78.73
2023-04-06T01:34:04.644Z,78.83
2023-04-06T01:36:32.834Z,78.80
2023-04-06T01:39:15.188Z,78.68
2023-04-06T01:41:43.715Z,78.74
2023-04-06T01:44:13.120Z,78.74
2023-04-06T01:46:42.648Z,78.77
2023-04-06T01:49:12.777Z,78.80
2023-04-06T01:51:42.878Z,78.69
2023-04-06T01:54:14.289Z,78.67
2023-04-06T01:57:02.613Z,78.65
2023-04-06T01:59:34.252Z,78.63
2023-04-06T02:02:07.541Z,78.65
2023-04-06T02:04:36.469Z,78.67
2023-04-06T02:07:12.807Z,78.57
2023-04-06T02:09:41.903Z,78.62
2023-04-06T02:12:13.614Z,78.71
2023-04-06T02:14:42.239Z,78.72
2023-04-06T02:17:12.317Z,78.79
2023-04-06T02:19:40.421Z,78.77
2023-04-06T02:22:13.708Z,78.65
2023-04-06T02:24:43.265Z,78.65
2023-04-06T02:27:12.105Z,78.59
2023-04-06T02:29:41.106Z,78.61
2023-04-06T02:32:09.390Z,78.59
2023-04-06T02:34:37.662Z,78.50
2023-04-06T02:37:06.915Z,78.47
2023-04-06T02:39:35.585Z,78.47
2023-04-06T02:42:04.555Z,78.50
2023-04-06T02:44:32.812Z,78.44
2023-04-06T02:47:01.106Z,78.44
2023-04-06T02:49:29.977Z,78.39
2023-04-06T02:51:59.684Z,78.39
2023-04-06T02:54:31.432Z,78.26
2023-04-06T02:56:59.969Z,78.28
2023-04-06T02:59:35.619Z,78.31
2023-04-06T03:02:18.425Z,78.12
2023-04-06T03:04:48.339Z,78.07
2023-04-06T03:07:24.089Z,78.08
2023-04-06T03:09:54.395Z,78.13
2023-04-06T03:12:23.272Z,78.05
2023-04-06T03:15:11.952Z,78.01
2023-04-06T03:17:42.178Z,77.95
2023-04-06T03:20:14.410Z,77.93
2023-04-06T03:22:43.878Z,77.95
2023-04-06T03:25:13.896Z,77.90
2023-04-06T03:27:42.415Z,77.96
2023-04-06T03:30:18.731Z,77.99
2023-04-06T03:32:49.224Z,77.93
2023-04-06T03:35:17.640Z,77.95
2023-04-06T03:37:48.661Z,77.90
2023-04-06T03:40:17.652Z,77.85
2023-04-06T03:42:45.827Z,77.83
2023-04-06T03:45:15.735Z,77.81
2023-04-06T03:47:52.694Z,77.84
2023-04-06T03:50:21.520Z,77.84
2023-04-06T03:52:49.757Z,77.87
2023-04-06T03:55:18.034Z,77.87
2023-04-06T03:57:46.211Z,77.82
2023-04-06T04:00:16.694Z,77.72
2023-04-06T04:02:46.048Z,77.61
2023-04-06T04:05:14.779Z,77.53
2023-04-06T04:07:44.757Z,77.52
2023-04-06T04:10:15.638Z,77.54
2023-04-06T04:12:44.171Z,77.53
2023-04-06T04:15:18.745Z,77.54
2023-04-06T04:18:00.520Z,77.34
2023-04-06T04:20:29.617Z,77.35
2023-04-06T04:22:58.328Z,77.19
2023-04-06T04:25:27.212Z,77.10
2023-04-06T04:27:56.199Z,77.05
2023-04-06T04:30:25.753Z,77.03
2023-04-06T04:32:54.991Z,77.09
2023-04-06T04:35:24.193Z,77.15
2023-04-06T04:37:54.357Z,77.04
2023-04-06T04:40:22.666Z,76.96
2023-04-06T04:43:05.468Z,77.06
2023-04-06T04:45:37.646Z,77.00
2023-04-06T04:48:16.432Z,76.95
2023-04-06T04:50:57.838Z,76.91
2023-04-06T04:53:29.103Z,76.84
2023-04-06T04:56:06.454Z,76.72
2023-04-06T04:58:34.746Z,76.64
2023-04-06T05:01:02.987Z,76.64
2023-04-06T05:03:31.758Z,76.57
2023-04-06T05:06:06.829Z,76.63
2023-04-06T05:08:37.276Z,76.76
2023-04-06T05:11:06.132Z,76.69
2023-04-06T05:13:40.689Z,76.67
2023-04-06T05:16:15.954Z,76.71
2023-04-06T05:18:54.725Z,76.75
2023-04-06T05:21:23.614Z,76.70
2023-04-06T05:23:57.983Z,76.63
2023-04-06T05:26:26.507Z,76.50
2023-04-06T05:28:57.346Z,76.52
2023-04-06T05:31:26.729Z,76.49
2023-04-06T05:33:56.322Z,76.43
2023-04-06T05:36:36.685Z,76.27
2023-04-06T05:39:09.852Z,76.15
2023-04-06T05:41:56.748Z,76.05
2023-04-06T05:44:42.286Z,75.96
2023-04-06T05:47:13.740Z,75.99
2023-04-06T05:49:45.123Z,75.94
2023-04-06T05:52:18.687Z,75.82
2023-04-06T05:54:49.429Z,75.65
2023-04-06T05:57:17.925Z,75.54
2023-04-06T05:59:46.840Z,75.47
2023-04-06T06:02:16.296Z,75.35
2023-04-06T06:04:47.621Z,75.16
2023-04-06T06:07:16.370Z,75.00
2023-04-06T06:09:49.411Z,74.94
2023-04-06T06:12:31.750Z,74.75
2023-04-06T06:15:01.710Z,74.54
2023-04-06T06:17:30.933Z,74.39
2023-04-06T06:19:59.703Z,74.20
2023-04-06T06:22:29.224Z,74.05
2023-04-06T06:24:57.771Z,73.65
2023-04-06T06:27:25.998Z,73.15
2023-04-06T06:29:54.537Z,72.67
2023-04-06T06:32:24.170Z,72.44
2023-04-06T06:34:53.507Z,72.28
2023-04-06T06:37:22.098Z,71.53
2023-04-06T06:39:50.327Z,70.73
2023-04-06T06:42:18.899Z,70.36
2023-04-06T06:45:00.041Z,69.93
2023-04-06T06:47:28.257Z,69.68
2023-04-06T06:49:56.715Z,69.52
2023-04-06T06:52:27.013Z,69.45
2023-04-06T06:54:57.169Z,69.37
2023-04-06T06:57:27.141Z,69.27
2023-04-06T06:59:55.329Z,69.19
2023-04-06T07:02:23.935Z,69.08
2023-04-06T07:04:52.193Z,68.71
2023-04-06T07:07:21.691Z,68.09
2023-04-06T07:09:49.891Z,67.44
2023-04-06T07:12:18.300Z,67.08
2023-04-06T07:14:46.519Z,66.99
2023-04-06T07:17:15.566Z,66.60
2023-04-06T07:19:43.990Z,66.46
2023-04-06T07:22:13.255Z,66.39
2023-04-06T07:24:41.610Z,66.51
2023-04-06T07:27:10.158Z,66.71
2023-04-06T07:29:39.823Z,66.96
2023-04-06T07:32:08.499Z,67.08
2023-04-06T07:34:38.074Z,67.21
2023-04-06T07:37:06.331Z,67.21
2023-04-06T07:39:35.734Z,67.35
2023-04-06T07:42:04.109Z,67.39
2023-04-06T07:44:32.489Z,67.49
2023-04-06T07:47:01.450Z,67.37
2023-04-06T07:49:29.672Z,67.48
2023-04-06T07:51:57.818Z,67.55
2023-04-06T07:54:27.002Z,67.63
2023-04-06T07:56:55.116Z,67.68
2023-04-06T07:59:23.265Z,67.69
2023-04-06T08:01:51.635Z,67.60
2023-04-06T08:04:21.484Z,67.54
2023-04-06T08:06:50.001Z,67.56
2023-04-06T08:09:21.563Z,67.52
2023-04-06T08:11:50.004Z,67.39
2023-04-06T08:14:18.092Z,67.32
2023-04-06T08:16:46.953Z,67.20
2023-04-06T08:19:18.239Z,67.16
2023-04-06T08:21:47.311Z,66.85
2023-04-06T08:24:15.961Z,66.44
2023-04-06T08:26:44.445Z,66.43
2023-04-06T08:29:14.167Z,66.31
2023-04-06T08:31:42.528Z,66.34
2023-04-06T08:34:13.799Z,66.33
2023-04-06T08:36:42.778Z,66.45
2023-04-06T08:39:10.897Z,66.63
2023-04-06T08:41:39.019Z,66.70
2023-04-06T08:44:07.370Z,66.72
2023-04-06T08:46:35.863Z,66.64
2023-04-06T08:49:07.978Z,66.67
2023-04-06T08:51:37.678Z,66.78
2023-04-06T08:54:08.434Z,66.80
2023-04-06T08:56:39.308Z,66.73
2023-04-06T08:59:07.541Z,66.68
2023-04-06T09:01:39.988Z,66.47
2023-04-06T09:04:13.043Z,66.46
2023-04-06T09:06:42.477Z,66.53
2023-04-06T09:09:10.928Z,66.77
2023-04-06T09:11:53.004Z,67.05
2023-04-06T09:14:38.783Z,67.38
2023-04-06T09:17:07.320Z,67.66
2023-04-06T09:19:35.517Z,67.95
2023-04-06T09:22:08.578Z,68.06
2023-04-06T09:24:50.584Z,68.07
2023-04-06T09:27:18.928Z,68.06
2023-04-06T09:29:47.090Z,68.00
2023-04-06T09:32:19.412Z,68.00
2023-04-06T09:34:50.920Z,68.30
2023-04-06T09:37:20.225Z,68.77
2023-04-06T09:39:53.341Z,69.73
2023-04-06T09:42:28.159Z,70.89
2023-04-06T09:44:56.381Z,71.82
2023-04-06T09:47:29.453Z,73.24
2023-04-06T09:49:59.368Z,74.63
2023-04-06T09:52:31.426Z,76.00
2023-04-06T09:55:02.421Z,76.48
2023-04-06T09:57:51.868Z,77.31
2023-04-06T10:00:22.324Z,77.83
2023-04-06T10:03:22.455Z,78.84
2023-04-06T10:05:59.592Z,79.24
2023-04-06T10:08:31.736Z,79.84
2023-04-06T10:11:04.432Z,80.65
2023-04-06T10:13:32.756Z,80.89
2023-04-06T10:16:02.401Z,81.25
2023-04-06T10:18:33.897Z,81.79
2023-04-06T10:21:09.749Z,82.03
2023-04-06T10:23:55.580Z,82.01
2023-04-06T10:26:23.931Z,82.20
2023-04-06T10:28:52.300Z,82.42
2023-04-06T10:31:29.242Z,82.71
2023-04-06T10:33:59.422Z,83.00
2023-04-06T10:36:37.312Z,83.24
2023-04-06T10:39:06.905Z,83.44
2023-04-06T10:41:35.616Z,83.69
2023-04-06T10:44:04.025Z,84.00
2023-04-06T10:46:35.088Z,84.32
2023-04-06T10:49:15.542Z,84.61
2023-04-06T10:51:43.702Z,85.03
2023-04-06T10:54:11.956Z,85.15
2023-04-06T10:56:41.028Z,85.11
2023-04-06T10:59:09.161Z,85.17
2023-04-06T11:01:38.474Z,85.24
2023-04-06T11:04:09.043Z,85.31
2023-04-06T11:06:37.248Z,85.33
2023-04-06T11:09:05.374Z,85.46
2023-04-06T11:11:33.956Z,85.47
2023-04-06T11:14:02.319Z,85.72
2023-04-06T11:16:33.353Z,85.94
2023-04-06T11:19:02.736Z,85.71
2023-04-06T11:21:45.017Z,85.68
2023-04-06T11:24:23.830Z,85.48
2023-04-06T11:26:58.006Z,85.41
2023-04-06T11:29:30.936Z,85.37
2023-04-06T11:32:00.202Z,85.34
2023-04-06T11:34:30.501Z,85.27
2023-04-06T11:37:00.870Z,85.33
2023-04-06T11:39:30.555Z,85.39
2023-04-06T11:42:08.974Z,85.36
2023-04-06T11:44:47.216Z,85.46
2023-04-06T11:47:17.706Z,85.46
2023-04-06T11:49:47.569Z,85.35
2023-04-06T11:52:25.983Z,85.21
2023-04-06T11:54:55.103Z,85.06
2023-04-06T11:57:26.626Z,84.93
2023-04-06T11:59:55.107Z,84.95
2023-04-06T12:02:23.435Z,84.80
2023-04-06T12:04:52.414Z,84.50
2023-04-06T12:07:21.562Z,84.36
2023-04-06T12:09:49.834Z,84.18
2023-04-06T12:12:17.957Z,83.98
2023-04-06T12:14:46.136Z,84.10
2023-04-06T12:17:14.914Z,84.19
2023-04-06T12:19:43.030Z,84.20
2023-04-06T12:22:11.716Z,83.92
2023-04-06T12:24:40.605Z,83.53
2023-04-06T12:27:10.909Z,83.49
2023-04-06T12:29:40.016Z,83.44
2023-04-06T12:32:08.205Z,83.14
2023-04-06T12:34:36.793Z,82.92
2023-04-06T12:37:05.653Z,82.54
2023-04-06T12:39:36.716Z,82.28
2023-04-06T12:42:05.864Z,82.04
2023-04-06T12:44:34.108Z,81.78
2023-04-06T12:47:06.180Z,81.78
2023-04-06T12:49:34.698Z,81.75
2023-04-06T12:52:06.877Z,81.62
2023-04-06T12:54:37.380Z,81.46
2023-04-06T12:57:05.517Z,81.29
2023-04-06T12:59:35.751Z,81.25
2023-04-06T13:02:05.242Z,80.86
2023-04-06T13:04:33.681Z,80.73
2023-04-06T13:07:06.572Z,80.57
2023-04-06T13:09:35.389Z,80.32
2023-04-06T13:12:04.071Z,80.23
2023-04-06T13:14:33.104Z,79.95
2023-04-06T13:17:02.107Z,79.67
2023-04-06T13:19:32.373Z,79.37
2023-04-06T13:22:01.658Z,79.21
2023-04-06T13:24:30.639Z,79.03
2023-04-06T13:26:59.441Z,79.06
2023-04-06T13:29:28.383Z,79.01
2023-04-06T13:31:57.317Z,78.94
2023-04-06T13:34:25.834Z,79.04
2023-04-06T13:36:54.011Z,79.03
2023-04-06T13:39:29.936Z,79.22
2023-04-06T13:41:58.559Z,79.36
2023-04-06T13:44:27.214Z,79.73
2023-04-06T13:46:57.761Z,80.02
2023-04-06T13:49:26.199Z,80.32
2023-04-06T13:51:56.163Z,80.56
2023-04-06T13:54:24.473Z,80.71
2023-04-06T13:56:52.763Z,80.86
2023-04-06T13:59:20.986Z,80.96
2023-04-06T14:01:49.323Z,80.98
2023-04-06T14:04:17.901Z,80.99
2023-04-06T14:06:47.386Z,81.04
2023-04-06T14:09:15.938Z,80.98
2023-04-06T14:11:48.148Z,81.06
2023-04-06T14:14:16.244Z,81.08
2023-04-06T14:16:49.839Z,81.10
2023-04-06T14:19:22.084Z,81.22
2023-04-06T14:21:51.753Z,81.04
2023-04-06T14:24:21.944Z,81.02
2023-04-06T14:26:50.262Z,80.92
2023-04-06T14:29:18.806Z,80.84
2023-04-06T14:31:48.477Z,80.79
2023-04-06T14:34:18.088Z,80.57
2023-04-06T14:36:47.453Z,80.46
2023-04-06T14:39:15.770Z,80.56
2023-04-06T14:41:43.999Z,80.44
2023-04-06T14:44:13.488Z,80.44
2023-04-06T14:46:42.430Z,80.37
2023-04-06T14:49:10.846Z,80.35
2023-04-06T14:51:39.000Z,80.27
2023-04-06T14:54:07.222Z,80.26
2023-04-06T14:56:36.095Z,80.20
2023-04-06T14:59:06.731Z,80.22
2023-04-06T15:01:37.012Z,80.15
2023-04-06T15:04:05.641Z,80.17
2023-04-06T15:06:34.541Z,80.15
2023-04-06T15:09:03.849Z,80.04
2023-04-06T15:11:32.040Z,79.99
2023-04-06T15:14:01.191Z,79.88
2023-04-06T15:16:33.579Z,79.77
2023-04-06T15:19:02.843Z,79.70
2023-04-06T15:21:33.861Z,79.66
2023-04-06T15:24:02.338Z,79.63
2023-04-06T15:26:30.793Z,79.53
2023-04-06T15:29:00.467Z,79.44
2023-04-06T15:31:37.720Z,79.49
2023-04-06T15:34:09.298Z,79.62
2023-04-06T15:36:39.088Z,79.55
2023-04-06T15:39:09.973Z,79.46
2023-04-06T15:41:39.182Z,79.38
2023-04-06T15:44:07.457Z,79.43
2023-04-06T15:46:36.766Z,79.42
2023-04-06T15:49:05.151Z,79.36
2023-04-06T15:51:33.887Z,79.34
2023-04-06T15:54:02.022Z,79.33
2023-04-06T15:56:30.613Z,79.47
2023-04-06T15:59:01.563Z,79.38
2023-04-06T16:01:31.283Z,79.46
2023-04-06T16:04:00.549Z,79.42
2023-04-06T16:06:28.882Z,79.34
2023-04-06T16:08:57.709Z,79.30
2023-04-06T16:11:26.276Z,79.41
2023-04-06T16:13:55.622Z,79.30
2023-04-06T16:16:24.050Z,79.21
2023-04-06T16:18:52.404Z,79.18
2023-04-06T16:21:20.526Z,79.10
2023-04-06T16:23:48.859Z,79.02
2023-04-06T16:26:20.143Z,79.01
2023-04-06T16:28:48.477Z,79.02
2023-04-06T16:31:21.358Z,78.97
2023-04-06T16:33:56.202Z,78.99
2023-04-06T16:36:28.693Z,78.92
2023-04-06T16:38:57.443Z,78.92
2023-04-06T16:41:27.040Z,78.99
2023-04-06T16:43:57.664Z,79.02
2023-04-06T16:46:32.867Z,79.12
2023-04-06T16:49:01.055Z,79.17
2023-04-06T16:51:29.558Z,79.18
2023-04-06T16:53:57.702Z,79.14
2023-04-06T16:56:27.767Z,79.27
2023-04-06T16:58:56.373Z,79.25
2023-04-06T17:01:26.234Z,79.31
2023-04-06T17:03:54.788Z,79.13
2023-04-06T17:06:23.845Z,79.06
2023-04-06T17:08:53.721Z,79.09
2023-04-06T17:11:28.715Z,79.15
2023-04-06T17:14:04.285Z,79.15
2023-04-06T17:16:32.886Z,79.12
2023-04-06T17:19:01.274Z,79.23
2023-04-06T17:21:29.818Z,79.24
2023-04-06T17:23:57.837Z,79.26
2023-04-06T17:26:26.685Z,79.31
2023-04-06T17:28:54.737Z,79.29
2023-04-06T17:31:22.916Z,79.29
2023-04-06T17:33:52.837Z,79.25
2023-04-06T17:36:21.986Z,79.22
2023-04-06T17:38:52.691Z,79.12
2023-04-06T17:41:21.865Z,78.95
2023-04-06T17:43:51.598Z,78.91
2023-04-06T17:46:21.418Z,78.96
2023-04-06T17:48:51.046Z,78.94
2023-04-06T17:51:20.701Z,78.87
2023-04-06T17:53:49.032Z,78.86
2023-04-06T17:56:17.431Z,78.79
2023-04-06T17:58:45.715Z,78.76
2023-04-06T18:01:20.482Z,78.74
2023-04-06T18:03:49.016Z,78.84
2023-04-06T18:06:17.775Z,78.81
2023-04-06T18:08:46.296Z,78.79
2023-04-06T18:11:18.493Z,78.78
2023-04-06T18:13:46.859Z,78.90
2023-04-06T18:16:20.276Z,78.92
2023-04-06T18:18:49.560Z,79.01
2023-04-06T18:21:17.636Z,79.10
2023-04-06T18:23:49.505Z,79.16
2023-04-06T18:26:18.441Z,79.29
2023-04-06T18:28:46.983Z,79.33
2023-04-06T18:31:15.145Z,79.30
2023-04-06T18:33:44.164Z,79.19
2023-04-06T18:36:14.718Z,79.19
2023-04-06T18:38:44.634Z,79.23
2023-04-06T18:41:14.704Z,79.29
2023-04-06T18:43:43.245Z,79.25
2023-04-06T18:46:12.924Z,79.27
2023-04-06T18:48:42.243Z,79.17
2023-04-06T18:51:10.695Z,79.12
2023-04-06T18:53:40.077Z,79.19
2023-04-06T18:56:19.059Z,79.19
2023-04-06T18:58:49.225Z,79.14
2023-04-06T19:01:24.468Z,79.04
2023-04-06T19:03:53.930Z,79.02
2023-04-06T19:06:22.740Z,79.01
2023-04-06T19:08:50.893Z,78.82
2023-04-06T19:11:23.384Z,78.73
2023-04-06T19:13:53.661Z,78.71
2023-04-06T19:16:26.562Z,78.59
2023-04-06T19:18:56.653Z,78.53
2023-04-06T19:21:26.042Z,78.54
2023-04-06T19:23:56.684Z,78.26
2023-04-06T19:26:28.141Z,78.22
2023-04-06T19:28:56.282Z,78.12
2023-04-06T19:31:27.136Z,78.12
2023-04-06T19:33:55.767Z,77.85
2023-04-06T19:36:26.235Z,77.82
2023-04-06T19:38:54.804Z,77.83
2023-04-06T19:41:23.249Z,77.86
2023-04-06T19:43:51.442Z,77.31
2023-04-06T19:46:20.136Z,76.68
2023-04-06T19:48:48.272Z,76.17
2023-04-06T19:51:16.574Z,76.12
2023-04-06T19:53:45.406Z,75.79
2023-04-06T19:56:13.749Z,75.49
2023-04-06T19:58:42.247Z,75.65
2023-04-06T20:01:10.541Z,75.62
2023-04-06T20:03:39.063Z,75.54
2023-04-06T20:06:07.258Z,75.32
2023-04-06T20:08:35.510Z,75.15
2023-04-06T20:11:07.715Z,75.23
2023-04-06T20:13:37.780Z,75.32
2023-04-06T20:16:05.922Z,75.25
2023-04-06T20:18:41.286Z,75.26
2023-04-06T20:21:10.047Z,75.23
2023-04-06T20:23:38.142Z,75.12
2023-04-06T20:26:08.713Z,74.97
2023-04-06T20:28:37.651Z,74.79
2023-04-06T20:31:07.042Z,74.82
2023-04-06T20:33:36.030Z,74.80
2023-04-06T20:36:04.612Z,74.80
2023-04-06T20:38:34.188Z,74.55
2023-04-06T20:41:02.739Z,74.43
2023-04-06T20:43:31.930Z,74.52
2023-04-06T20:46:02.713Z,74.34
2023-04-06T20:48:33.627Z,74.21
2023-04-06T20:51:04.693Z,74.23
2023-04-06T20:53:33.137Z,74.03
2023-04-06T20:56:02.114Z,73.72
2023-04-06T20:58:30.977Z,73.33
2023-04-06T21:00:59.082Z,73.20
2023-04-06T21:03:42.618Z,73.26
2023-04-06T21:06:11.389Z,73.42
2023-04-06T21:08:39.549Z,73.53
2023-04-06T21:11:12.547Z,73.62
2023-04-06T21:13:41.247Z,73.82
2023-04-06T21:16:10.402Z,73.81
2023-04-06T21:18:38.926Z,73.75
2023-04-06T21:21:07.601Z,73.78
2023-04-06T21:23:35.910Z,73.80
2023-04-06T21:26:04.203Z,73.83
2023-04-06T21:28:32.652Z,73.78
2023-04-06T21:31:02.309Z,73.50
2023-04-06T21:33:37.656Z,73.47
2023-04-06T21:36:07.134Z,73.58
2023-04-06T21:38:36.708Z,73.70
2023-04-06T21:41:04.919Z,73.73
2023-04-06T21:43:33.885Z,73.78
2023-04-06T21:46:02.581Z,73.86
2023-04-06T21:48:31.703Z,73.90
2023-04-06T21:50:59.883Z,73.71
2023-04-06T21:53:28.159Z,73.47
2023-04-06T21:55:56.266Z,73.28
2023-04-06T21:58:25.184Z,73.27
2023-04-06T22:00:53.737Z,73.48
2023-04-06T22:03:22.522Z,73.54
2023-04-06T22:05:52.749Z,73.35
2023-04-06T22:08:33.741Z,73.39
2023-04-06T22:11:08.195Z,73.50
2023-04-06T22:13:36.583Z,73.62
2023-04-06T22:16:05.366Z,73.68
2023-04-06T22:18:38.049Z,73.63
2023-04-06T22:21:07.191Z,73.44
2023-04-06T22:23:36.082Z,72.42
2023-04-06T22:26:04.443Z,72.26
2023-04-06T22:28:33.406Z,72.35
2023-04-06T22:31:01.760Z,72.28
2023-04-06T22:33:30.751Z,72.19
2023-04-06T22:35:59.461Z,72.04
2023-04-06T22:38:27.957Z,72.18
2023-04-06T22:40:56.444Z,72.09
2023-04-06T22:43:24.913Z,71.82
2023-04-06T22:45:53.199Z,71.42
2023-04-06T22:48:21.545Z,71.27
2023-04-06T22:50:50.025Z,70.99
2023-04-06T22:53:18.486Z,70.76
2023-04-06T22:55:46.712Z,70.78
2023-04-06T22:58:14.962Z,70.64
2023-04-06T23:00:45.166Z,70.70
2023-04-06T23:03:25.998Z,70.77
2023-04-06T23:05:54.492Z,70.85
2023-04-06T23:08:22.485Z,70.82
2023-04-06T23:10:56.195Z,70.71
2023-04-06T23:13:25.467Z,70.77
2023-04-06T23:15:53.639Z,70.69
2023-04-06T23:18:22.688Z,70.47
2023-04-06T23:20:51.056Z,70.13
2023-04-06T23:23:19.259Z,69.87
2023-04-06T23:25:48.096Z,69.69
2023-04-06T23:28:16.176Z,69.51
2023-04-06T23:30:46.141Z,69.01
2023-04-06T23:33:15.002Z,68.96
2023-04-06T23:35:43.282Z,68.61
2023-04-06T23:38:11.679Z,68.72
2023-04-06T23:40:39.706Z,68.66
2023-04-06T23:43:07.765Z,68.45
2023-04-06T23:45:36.109Z,68.41
2023-04-06T23:48:10.537Z,68.41
2023-04-06T23:50:38.901Z,68.51
2023-04-06T23:53:07.259Z,68.65
2023-04-06T23:55:35.591Z,68.78
2023-04-06T23:58:04.304Z,69.04
